Data ze zpráv METAR

Na této stránce "Data ze zpráv METAR" si můžete prohlédnout aktuální data o počasí z českých letišť.

LKKB - Kbely, Czech Republic
Distance from station: JJZ 98km
Aktualizováno v: 23/07/2018 00:00
Jasno
Jasno
 Vítr od SZ
Vítr: SZ 9 km/h
Teplota vzduchu: 21°C
Rosný bod: 9°C
Vlhkost: 46%
Tlak vzduchu: 1014 hPa
Souhrn: Jasno
Visibility: greater than 10 km
2018/07/22 22:00 LKKB 222200Z 32005KT CAVOK 21/09 Q1014
LKPR - Prague/Ruzyne, Czech Republic
Distance from station: JJZ 108km
Aktualizováno v: 23/07/2018 00:00
Jasno
Jasno
 Vítr od SZ
Vítr: SZ 11 km/h
Teplota vzduchu: 19°C
Rosný bod: 11°C
Vlhkost: 60%
Tlak vzduchu: 1015 hPa
Souhrn: Jasno
Visibility: greater than 10 km
2018/07/22 22:00 LKPR 222200Z 32006KT CAVOK 19/11 Q1015 NOSIG
 
LKPD - Pardubice, Czech Republic
Distance from station: JJV 111km
Aktualizováno v: 23/07/2018 00:00
Jasno
Jasno
 Vítr od ZJZ
Vítr: ZJZ 7 km/h
Teplota vzduchu: 20°C
Rosný bod: 8°C
Vlhkost: 46%
Tlak vzduchu: 1013 hPa
Souhrn: Jasno
Visibility: greater than 10 km
2018/07/22 22:00 LKPD 222200Z 25004KT CAVOK 20/08 Q1013 RMK BLU
LKCV - Caslav, Czech Republic
Distance from station: JJV 113km
Aktualizováno v: 23/07/2018 00:00
Jasno
Jasno
 Vítr od ZSZ
Vítr: ZSZ 4 km/h
Teplota vzduchu: 19°C
Rosný bod: 11°C
Vlhkost: 60%
Tlak vzduchu: 1013 hPa
Souhrn: Jasno
Visibility: greater than 10 km
2018/07/22 22:00 LKCV 222200Z 29002KT CAVOK 19/11 Q1013 NOSIG RMK BLU BLU
 
LKKV - Karlovy Vary, Czech Republic
Distance from station: ZJZ 173km
Aktualizováno v: 23/07/2018 00:00
Jasno
Jasno
 Vítr od varies
Vítr: varies 4 km/h
Teplota vzduchu: 18°C
Rosný bod: 13°C
Vlhkost: 73%
Tlak vzduchu: 1017 hPa
Souhrn: Jasno
Visibility: greater than 10 km
2018/07/22 22:00 LKKV 222200Z VRB02KT CAVOK 18/13 Q1017
LKLN - Plzen Line, Czech Republic
Distance from station: JZ 189km
Aktualizováno v: 23/07/2018 00:00
Zataženo
Zataženo
 Vítr od calm
Vítr: Bezvětří
Teplota vzduchu: 18°C
Rosný bod: 14°C
Vlhkost: 78%
Tlak vzduchu: 1015 hPa
Clouds: Zataženo
Visibility: 10 km
Cloud details: Few Clouds 4267 m
Zataženo 6401 m
2018/07/22 22:00 LKLN 222200Z AUTO 00000KT 9999 FEW140 OVC210 18/14 Q1015
 
LKNA - Namest, Czech Republic
Distance from station: JJV 209km
Aktualizováno v: 22/07/2018 23:00
NOT Current
Slabý déšť, Polojasno
Slabý déšť, Polojasno
 Vítr od ZSZ
Vítr: ZSZ 9 km/h
Teplota vzduchu: 18°C
Rosný bod: 15°C
Vlhkost: 83%
Tlak vzduchu: 1013 hPa
Souhrn: Slabý déšť
Clouds: Polojasno
Visibility: 10 km
2018/07/22 21:00 LKNA 222100Z 29005KT 9999 -RA NSC 18/15 Q1013
LKTB - Brno/Turany, Czech Republic
Distance from station: JJV 230km
Aktualizováno v: 23/07/2018 00:00
Slabý déšť, Polojasno
Slabý déšť, Polojasno
 Vítr od SZ
Vítr: SZ 11 km/h
Teplota vzduchu: 19°C
Rosný bod: 16°C
Vlhkost: 83%
Tlak vzduchu: 1012 hPa
Souhrn: Slabý déšť
Clouds: Polojasno
Visibility: 10 km
2018/07/22 22:00 LKTB 222200Z 32006KT 9999 -RA NSC 19/16 Q1012 NOSIG